createdAt,value
2018-07-12T00:01:01.125Z,90.800003
2018-07-12T00:06:03.348Z,91.199997
2018-07-12T00:11:05.668Z,91.5
2018-07-12T00:16:08.117Z,91.800003
2018-07-12T00:21:10.361Z,91.599998
2018-07-12T00:26:12.656Z,93.300003
2018-07-12T00:31:14.944Z,93.400002
2018-07-12T00:36:17.132Z,92.5
2018-07-12T00:41:19.318Z,94.400002
2018-07-12T00:46:21.609Z,93.400002
2018-07-12T00:51:24.033Z,93.099998
2018-07-12T00:56:26.372Z,93.199997
2018-07-12T01:01:28.584Z,93.199997
2018-07-12T01:06:30.961Z,93.199997
2018-07-12T01:11:33.252Z,93
2018-07-12T01:16:35.470Z,93.199997
2018-07-12T01:21:37.848Z,93.699997
2018-07-12T01:26:40.155Z,93.5
2018-07-12T01:31:42.280Z,94.099998
2018-07-12T01:36:44.698Z,94.400002
2018-07-12T01:41:46.937Z,94.199997
2018-07-12T01:46:49.283Z,94.900002
2018-07-12T01:51:51.606Z,94.800003
2018-07-12T01:56:53.841Z,94.5
2018-07-12T02:01:56.071Z,94.599998
2018-07-12T02:06:58.482Z,94.300003
2018-07-12T02:12:00.765Z,94.800003
2018-07-12T02:17:03.033Z,94.400002
2018-07-12T02:22:05.371Z,94.599998
2018-07-12T02:27:07.487Z,94.300003
2018-07-12T02:32:09.901Z,94.699997
2018-07-12T02:37:12.174Z,95.199997
2018-07-12T02:42:14.478Z,95.5
2018-07-12T02:47:16.949Z,96.099998
2018-07-12T02:52:19.065Z,96.199997
2018-07-12T02:57:21.274Z,96.300003
2018-07-12T03:02:23.597Z,96.400002
2018-07-12T03:07:25.903Z,96.800003
2018-07-12T03:12:28.200Z,97.099998
2018-07-12T03:17:30.459Z,97.400002
2018-07-12T03:22:32.923Z,98.199997
2018-07-12T03:27:35.059Z,98.900002
2018-07-12T03:32:37.354Z,99.5
2018-07-12T03:37:39.619Z,99.900002
2018-07-12T03:42:42.094Z,99.900002
2018-07-12T03:47:44.265Z,99.900002
2018-07-12T03:52:46.521Z,99.900002
2018-07-12T03:57:49.088Z,99.900002
2018-07-12T04:02:51.120Z,99.900002
2018-07-12T04:07:53.348Z,99.900002
2018-07-12T04:12:55.783Z,99.900002
2018-07-12T04:17:57.985Z,99.900002
2018-07-12T04:23:00.314Z,99.900002
2018-07-12T04:28:02.633Z,99.900002
2018-07-12T04:33:05.007Z,99.900002
2018-07-12T04:38:07.124Z,99.900002
2018-07-12T04:43:09.541Z,99.900002
2018-07-12T04:48:11.726Z,99.900002
2018-07-12T04:53:14.153Z,99.900002
2018-07-12T04:58:16.446Z,99.900002
2018-07-12T05:03:18.742Z,99.900002
2018-07-12T05:08:21.021Z,99.900002
2018-07-12T05:13:23.237Z,99.900002
2018-07-12T05:18:25.557Z,99.900002
2018-07-12T05:23:27.786Z,99.900002
2018-07-12T05:28:30.218Z,99.900002
2018-07-12T05:33:32.458Z,99.900002
2018-07-12T05:38:34.694Z,99.900002
2018-07-12T05:43:37.119Z,99.900002
2018-07-12T05:48:39.383Z,99.900002
2018-07-12T05:53:42.481Z,99.900002
2018-07-12T05:58:43.949Z,99.900002
2018-07-12T06:03:46.319Z,99.900002
2018-07-12T06:08:48.439Z,99.900002
2018-07-12T06:13:50.796Z,99.900002
2018-07-12T06:18:53.195Z,99.5
2018-07-12T06:23:55.447Z,98
2018-07-12T06:28:57.687Z,95
2018-07-12T06:34:00.044Z,92.099998
2018-07-12T06:39:02.441Z,86
2018-07-12T06:44:04.630Z,86.099998
2018-07-12T06:49:07.002Z,82.5
2018-07-12T06:54:09.307Z,79.900002
2018-07-12T06:59:11.411Z,80.199997
2018-07-12T07:04:13.739Z,79.199997
2018-07-12T07:09:16.232Z,82.400002
2018-07-12T07:14:18.423Z,81.400002
2018-07-12T07:19:20.589Z,75.800003
2018-07-12T07:24:22.974Z,72.099998
2018-07-12T07:29:25.361Z,77.599998
2018-07-12T07:34:27.502Z,70.900002
2018-07-12T07:39:29.917Z,68.5
2018-07-12T07:44:32.179Z,63.900002
2018-07-12T07:49:34.449Z,63.900002
2018-07-12T07:54:36.707Z,63.299999
2018-07-12T07:59:39.024Z,64.599998
2018-07-12T08:04:41.240Z,65
2018-07-12T08:09:43.649Z,62.599998
2018-07-12T08:14:45.868Z,61
2018-07-12T08:19:48.272Z,58.799999
2018-07-12T08:24:50.493Z,63.400002
2018-07-12T08:29:52.796Z,57.599998
2018-07-12T08:34:55.155Z,58.700001
2018-07-12T08:39:57.391Z,58
2018-07-12T08:44:59.587Z,60.599998
2018-07-12T08:50:01.903Z,56.900002
2018-07-12T08:55:04.179Z,55.799999
2018-07-12T09:00:06.534Z,54.900002
2018-07-12T09:05:08.925Z,52.700001
2018-07-12T09:10:11.177Z,51.5
2018-07-12T09:15:13.525Z,53
2018-07-12T09:20:15.832Z,52.099998
2018-07-12T09:25:17.957Z,49.5
2018-07-12T09:30:20.264Z,52.700001
2018-07-12T09:35:22.583Z,50.5
2018-07-12T09:40:24.854Z,48.599998
2018-07-12T09:45:27.158Z,51
2018-07-12T09:50:29.529Z,47.5
2018-07-12T09:55:31.787Z,47.400002
2018-07-12T10:00:34.056Z,43.299999
2018-07-12T10:05:36.445Z,45
2018-07-12T10:10:38.771Z,43
2018-07-12T10:15:40.927Z,42.700001
2018-07-12T10:20:43.304Z,44.099998
2018-07-12T10:25:45.728Z,40.200001
2018-07-12T10:30:47.868Z,41
2018-07-12T10:35:50.171Z,39.900002
2018-07-12T10:40:52.341Z,40.200001
2018-07-12T10:45:54.777Z,45.400002
2018-07-12T10:50:57.094Z,44.200001
2018-07-12T10:55:59.359Z,41.299999
2018-07-12T11:01:01.541Z,41.299999
2018-07-12T11:06:03.978Z,44.200001
2018-07-12T11:11:06.150Z,41.5
2018-07-12T11:16:08.534Z,38.900002
2018-07-12T11:21:10.864Z,40.200001
2018-07-12T11:26:13.113Z,40.900002
2018-07-12T11:31:15.330Z,39.900002
2018-07-12T11:36:17.608Z,43.599998
2018-07-12T11:41:19.948Z,39.099998
2018-07-12T11:46:22.253Z,40.200001
2018-07-12T11:51:24.537Z,37.5
2018-07-12T11:56:26.975Z,38.700001
2018-07-12T12:01:29.208Z,36.200001
2018-07-12T12:06:31.432Z,38.900002
2018-07-12T12:11:33.771Z,39.799999
2018-07-12T12:16:36.038Z,37.599998
2018-07-12T12:21:38.231Z,39.900002
2018-07-12T12:31:42.879Z,37.700001
2018-07-12T12:36:45.218Z,36.799999
2018-07-12T12:41:47.688Z,36.400002
2018-07-12T12:46:49.845Z,33.799999
2018-07-12T12:51:52.049Z,36.700001
2018-07-12T12:56:54.377Z,37.400002
2018-07-12T13:01:56.742Z,35.400002
2018-07-12T13:06:58.966Z,37.099998
2018-07-12T13:12:01.262Z,38.5
2018-07-12T13:17:03.611Z,36.599998
2018-07-12T13:22:05.804Z,35.799999
2018-07-12T13:27:08.064Z,35.900002
2018-07-12T13:32:10.373Z,35.900002
2018-07-12T13:37:12.789Z,34.099998
2018-07-12T13:42:14.958Z,34.400002
2018-07-12T13:47:17.272Z,37.599998
2018-07-12T13:52:19.611Z,39.299999
2018-07-12T13:57:22.106Z,37.400002
2018-07-12T14:02:24.240Z,36.299999
2018-07-12T14:07:26.528Z,33.700001
2018-07-12T14:12:28.878Z,35.900002
2018-07-12T14:17:31.062Z,37.5
2018-07-12T14:22:33.358Z,36.400002
2018-07-12T14:27:35.621Z,36.799999
2018-07-12T14:32:37.999Z,33.5
2018-07-12T14:37:40.298Z,35.299999
2018-07-12T14:42:42.557Z,36.700001
2018-07-12T14:47:44.989Z,36.599998
2018-07-12T14:52:47.141Z,35.599998
2018-07-12T14:57:49.392Z,37.700001
2018-07-12T15:02:51.740Z,33.799999
2018-07-12T15:07:54.047Z,36.599998
2018-07-12T15:12:56.256Z,34.900002
2018-07-12T15:17:58.603Z,34.099998
2018-07-12T15:23:01.074Z,35.099998
2018-07-12T15:28:03.304Z,39.099998
2018-07-12T15:33:05.423Z,37.700001
2018-07-12T15:38:07.773Z,36.799999
2018-07-12T15:43:10.107Z,37.799999
2018-07-12T15:48:12.393Z,41.700001
2018-07-12T15:53:14.668Z,39.200001
2018-07-12T15:58:16.963Z,40.799999
2018-07-12T16:03:19.238Z,39.400002
2018-07-12T16:08:21.557Z,40.599998
2018-07-12T16:13:23.831Z,42.299999
2018-07-12T16:18:26.221Z,41.200001
2018-07-12T16:23:28.426Z,41.900002
2018-07-12T16:28:30.744Z,42.299999
2018-07-12T16:33:33.082Z,44.799999
2018-07-12T16:38:35.391Z,45.700001
2018-07-12T16:43:37.575Z,46.700001
2018-07-12T16:48:39.916Z,44.400002
2018-07-12T16:53:42.149Z,46.599998
2018-07-12T17:03:47.648Z,48.400002
2018-07-12T17:08:49.197Z,46.900002
2018-07-12T17:13:51.597Z,49.400002
2018-07-12T17:18:53.756Z,49.599998
2018-07-12T17:23:56.070Z,50.299999
2018-07-12T17:28:58.274Z,51.700001
2018-07-12T17:34:00.583Z,52.5
2018-07-12T17:39:02.879Z,51.900002
2018-07-12T17:44:05.257Z,52.599998
2018-07-12T17:49:07.411Z,54.099998
2018-07-12T17:54:09.714Z,53.599998
2018-07-12T17:59:11.944Z,55.5
2018-07-12T18:04:14.529Z,58.299999
2018-07-12T18:09:16.844Z,57
2018-07-12T18:14:19.041Z,58.099998
2018-07-12T18:19:21.260Z,58.599998
2018-07-12T18:24:23.498Z,57.900002
2018-07-12T18:29:25.790Z,57.900002
2018-07-12T18:34:28.072Z,60.400002
2018-07-12T18:39:30.509Z,60.5
2018-07-12T18:44:32.642Z,61.200001
2018-07-12T18:49:35.118Z,62.5
2018-07-12T18:54:37.384Z,63.299999
2018-07-12T18:59:39.534Z,63.400002
2018-07-12T19:04:41.988Z,63.599998
2018-07-12T19:09:44.212Z,65
2018-07-12T19:14:46.449Z,65.400002
2018-07-12T19:19:48.822Z,66.699997
2018-07-12T19:24:51.187Z,67.099998
2018-07-12T19:29:53.360Z,67.900002
2018-07-12T19:34:55.652Z,68.599998
2018-07-12T19:39:57.882Z,69.400002
2018-07-12T19:45:00.400Z,70.5
2018-07-12T19:50:02.690Z,71.400002
2018-07-12T19:55:04.791Z,72.400002
2018-07-12T20:00:07.174Z,73
2018-07-12T20:05:09.465Z,73.599998
2018-07-12T20:10:11.649Z,74.5
2018-07-12T20:15:14.124Z,75
2018-07-12T20:20:16.370Z,75.900002
2018-07-12T20:25:18.593Z,76.599998
2018-07-12T20:30:20.898Z,77.5
2018-07-12T20:35:23.273Z,78.5
2018-07-12T20:40:25.465Z,78.800003
2018-07-12T20:45:27.767Z,79.599998
2018-07-12T20:50:30.118Z,80.400002
2018-07-12T20:55:32.421Z,80.599998
2018-07-12T21:00:34.551Z,81.300003
2018-07-12T21:05:36.895Z,81.699997
2018-07-12T21:10:39.283Z,82.199997
2018-07-12T21:15:41.549Z,82.300003
2018-07-12T21:20:43.814Z,83.800003
2018-07-12T21:25:45.997Z,84.300003
2018-07-12T21:30:48.480Z,84.599998
2018-07-12T21:35:50.677Z,84.800003
2018-07-12T21:40:53.076Z,84.300003
2018-07-12T21:45:55.180Z,84.699997
2018-07-12T21:50:57.541Z,84.900002
2018-07-12T21:55:59.895Z,85.400002
2018-07-12T22:01:02.168Z,85.699997
2018-07-12T22:06:04.562Z,85.5
2018-07-12T22:11:06.734Z,85.800003
2018-07-12T22:16:09.138Z,86.400002
2018-07-12T22:21:11.594Z,86.699997
2018-07-12T22:26:13.686Z,86.400002
2018-07-12T22:31:15.943Z,87.199997
2018-07-12T22:36:18.132Z,87.099998
2018-07-12T22:41:20.609Z,87
2018-07-12T22:46:22.707Z,87.900002
2018-07-12T22:51:25.108Z,89.099998
2018-07-12T22:56:27.405Z,89.599998
2018-07-12T23:01:29.736Z,89.199997
2018-07-12T23:06:31.987Z,89.699997
2018-07-12T23:11:34.352Z,89.900002
2018-07-12T23:16:36.588Z,91.099998
2018-07-12T23:21:38.923Z,89.900002
2018-07-12T23:26:41.293Z,89.800003
2018-07-12T23:31:43.453Z,89.699997
2018-07-12T23:36:45.846Z,90.300003
2018-07-12T23:41:48.072Z,90.699997
2018-07-12T23:46:50.445Z,91.300003
2018-07-12T23:51:52.772Z,91.900002
2018-07-12T23:56:55.168Z,92.300003
